Date,TemperatureHighF,TemperatureAvgF,TemperatureLowF,DewpointHighF,DewpointAvgF,DewpointLowF,HumidityHigh,HumidityAvg,HumidityLow,PressureMaxIn,PressureMinIn,WindSpeedMaxMPH,WindSpeedAvgMPH,GustSpeedMaxMPH,PrecipitationSumIn
2013-1-1,47.1,43.3,38.8,40.6,36.4,29.8,93,78,51,29.96,29.82,3,1,5,0.11
2013-1-2,42.2,36.0,31.2,35.3,29.0,20.1,96,77,57,30.14,29.91,3,1,4,0.15
2013-1-3,37.5,30.5,23.3,22.2,19.8,17.1,91,65,44,30.17,30.08,2,0,3,0.00
2013-1-4,45.2,32.9,23.2,34.8,26.1,21.0,99,78,45,30.15,30.03,4,1,5,0.00
2013-1-5,45.8,36.2,29.0,31.6,26.4,23.9,90,69,43,30.30,30.09,3,1,5,0.00
2013-1-6,50.4,40.9,33.5,38.9,35.4,31.4,95,82,55,30.18,29.96,4,1,6,0.05
2013-1-7,50.1,39.3,27.8,36.9,31.4,26.0,95,75,48,30.37,30.04,3,1,8,0.00
2013-1-8,55.1,40.0,26.3,41.8,34.1,25.2,100,82,52,30.40,30.31,4,1,6,0.00
2013-1-9,65.8,52.1,37.2,52.0,45.4,35.9,98,79,57,30.33,30.17,5,1,7,0.00
2013-1-10,54.8,45.6,37.0,47.3,35.1,30.2,93,69,41,30.49,30.29,3,1,5,0.00
2013-1-11,55.9,45.4,31.9,54.2,43.4,30.8,100,93,76,30.42,30.02,4,1,7,0.06
2013-1-12,55.9,47.1,40.8,53.3,46.0,40.1,100,96,77,30.09,30.02,3,1,7,0.00
2013-1-13,57.0,49.6,41.6,57.0,49.6,41.2,100,100,100,30.08,29.97,5,2,9,0.01
2013-1-14,66.1,58.3,46.0,60.5,55.8,45.5,100,92,81,30.13,29.95,4,2,8,0.62
2013-1-15,46.0,43.3,41.9,45.5,43.0,41.6,100,99,98,30.20,30.02,3,1,5,0.38
2013-1-16,47.4,42.6,38.6,47.4,42.6,38.6,100,100,100,30.02,29.83,5,1,6,0.28
2013-1-17,44.5,40.8,32.8,44.5,40.6,32.3,100,99,96,30.05,29.89,2,1,7,0.71
2013-1-18,40.6,33.9,25.4,35.5,27.5,21.2,100,79,49,30.46,29.95,4,1,9,0.24
2013-1-19,52.6,39.1,24.5,37.7,28.4,20.7,93,69,31,30.43,30.01,6,2,10,0.01
2013-1-20,59.6,48.8,36.6,37.2,33.0,25.7,67,55,41,30.00,29.79,6,3,13,0.00
2013-1-21,48.9,38.6,27.0,40.7,29.5,19.8,86,70,51,30.03,29.69,5,2,10,0.00
2013-1-22,33.7,27.4,18.9,25.8,10.8,3.2,74,50,35,30.20,29.82,5,2,13,0.00
2013-1-23,30.0,22.7,13.8,14.5,8.1,3.4,74,54,32,30.28,30.06,3,1,7,0.00
2013-1-24,27.6,24.2,19.2,20.3,12.7,4.6,89,63,43,30.43,29.93,4,2,7,0.03
2013-1-25,28.5,22.9,13.1,25.3,14.8,6.3,92,72,51,30.43,29.99,3,1,4,0.00
2013-1-26,37.2,27.0,15.6,23.5,19.6,13.2,93,75,53,30.34,30.00,5,1,6,0.09
2013-1-27,37.8,26.5,16.4,21.2,16.8,12.4,86,68,45,30.52,30.34,3,1,10,0.00
2013-1-28,49.5,38.7,24.5,44.2,32.9,20.9,93,80,55,30.44,30.03,7,2,13,0.09
2013-1-29,68.9,53.1,44.9,53.4,47.0,42.7,93,81,54,30.07,29.98,4,2,10,0.00
2013-1-30,67.1,57.5,45.1,58.8,54.1,43.8,100,89,72,29.98,29.40,13,6,19,0.00
2013-1-31,61.3,49.9,37.6,58.4,35.0,18.1,94,59,35,29.86,29.20,14,6,20,0.50
2013-2-1,41.2,32.4,25.0,28.6,16.9,7.5,78,53,36,30.28,29.72,7,3,13,0.00
2013-2-2,36.0,28.6,20.6,21.8,14.2,9.4,68,55,36,30.32,29.93,4,1,6,0.00
2013-2-3,41.3,33.4,24.4,27.9,24.5,20.5,92,71,50,29.92,29.76,3,1,4,0.00
2013-2-4,39.5,33.4,25.8,29.4,20.4,13.7,93,59,45,30.05,29.83,5,2,10,0.00
2013-2-5,49.1,42.4,34.6,35.4,31.7,26.4,91,67,53,29.87,29.77,5,2,12,0.00
2013-2-6,50.5,38.7,27.9,37.3,32.0,26.3,98,79,51,30.27,29.83,3,1,4,0.00
2013-2-7,44.3,36.9,26.1,41.9,31.5,24.3,95,82,60,30.35,30.09,5,1,9,0.09
2013-2-8,47.1,42.8,39.1,46.8,41.5,29.5,100,96,67,30.09,29.51,6,3,15,1.82
2013-2-9,40.8,35.6,31.8,29.9,23.9,21.0,72,62,52,30.28,29.76,6,3,10,0.00
2013-2-10,42.1,34.3,23.2,37.6,23.7,13.5,87,66,43,30.42,30.24,3,1,5,0.00
2013-2-11,60.7,53.5,42.3,58.2,50.8,37.4,100,91,75,30.24,29.69,8,4,13,0.12
2013-2-12,60.1,49.7,36.6,48.8,37.2,26.9,98,65,31,29.92,29.70,4,1,7,0.00
2013-2-13,48.9,45.1,39.2,43.8,40.9,35.6,98,85,65,29.87,29.51,3,1,9,0.09
2013-2-14,48.9,40.2,33.1,38.4,34.6,30.7,97,82,54,30.00,29.63,3,1,5,0.00
2013-2-15,58.1,44.1,31.2,43.7,36.8,30.4,100,78,48,30.00,29.85,5,2,11,0.00
2013-2-16,43.8,36.6,30.7,37.1,33.6,27.0,97,89,75,29.89,29.67,3,2,7,0.17
2013-2-17,34.9,31.1,27.2,26.7,17.1,6.7,85,57,37,30.10,29.66,6,4,19,0.07
2013-2-18,40.8,31.6,25.1,28.4,15.7,8.6,82,53,28,30.31,30.10,4,2,9,0.00
2013-2-19,53.3,44.8,34.6,49.8,39.1,26.7,95,81,69,30.18,29.69,7,3,11,0.02
2013-2-20,44.1,36.3,28.7,39.8,26.7,17.2,98,70,44,30.05,29.76,3,1,5,0.00
2013-2-21,39.1,32.4,26.3,23.0,19.0,15.2,66,58,48,30.20,30.03,6,2,10,0.00
2013-2-22,41.3,35.6,30.3,40.5,28.6,18.7,97,76,57,30.30,30.10,5,1,5,0.00
2013-2-23,52.2,44.9,41.1,52.2,44.8,40.7,100,100,97,30.10,29.69,5,2,7,0.40
2013-2-24,53.2,43.6,35.3,45.1,39.0,24.0,100,85,56,30.00,29.67,4,1,7,0.00
2013-2-25,44.8,35.7,27.0,30.5,25.9,22.8,93,69,49,30.17,30.00,3,1,7,0.00
2013-2-26,56.6,42.3,27.3,56.6,40.4,25.5,100,93,78,30.13,29.46,10,4,16,0.94
2013-2-27,57.5,49.8,37.9,56.6,45.9,36.9,100,88,59,29.62,29.44,5,2,10,0.00
2013-2-28,46.8,41.2,35.3,41.3,35.5,28.6,99,81,50,29.65,29.55,4,1,5,0.01
2013-3-1,47.9,42.2,36.6,35.9,32.1,29.1,81,67,56,29.77,29.64,4,2,6,0.00
2013-3-2,45.2,38.0,33.5,31.9,27.2,22.2,78,65,50,29.78,29.71,4,2,10,0.00
2013-3-3,43.6,35.6,30.1,25.8,23.5,20.3,77,62,45,29.80,29.70,4,2,7,0.00
2013-3-4,44.1,36.2,30.9,27.5,22.7,20.1,74,58,42,29.94,29.80,5,2,9,0.00
2013-3-5,46.1,38.5,30.9,36.2,26.7,21.3,93,64,38,30.00,29.69,5,2,10,0.05
2013-3-6,46.2,40.0,35.3,45.7,39.1,34.2,100,97,93,29.74,29.21,11,5,19,1.98
2013-3-7,48.8,42.1,36.9,35.3,31.2,26.9,94,66,52,30.00,29.74,6,4,11,0.01
2013-3-8,46.1,41.5,36.5,33.3,28.6,24.9,73,60,52,30.10,29.97,6,3,7,0.00
2013-3-9,54.5,42.6,29.8,35.9,29.7,25.8,92,62,38,30.23,30.09,4,2,7,0.00
2013-3-10,53.3,39.7,25.4,42.6,34.6,24.2,100,83,53,30.27,30.20,5,1,11,0.00
2013-3-11,60.2,49.5,37.2,51.9,45.5,36.8,100,87,72,30.21,29.96,7,3,19,0.01
2013-3-12,59.0,53.1,46.0,59.0,50.6,39.0,100,92,76,29.97,29.65,10,5,27,0.40
2013-3-13,54.1,44.6,34.6,38.5,32.3,23.7,89,63,39,29.94,29.81,5,2,15,0.00
2013-3-14,47.6,40.1,33.5,25.1,21.9,19.2,58,48,36,30.05,29.93,6,3,21,0.00
2013-3-15,52.5,43.6,29.7,38.1,27.1,18.0,80,54,27,30.03,29.74,6,2,17,0.00
2013-3-16,57.2,49.5,39.9,53.6,43.1,34.9,97,80,50,29.77,29.55,5,2,17,0.33
2013-3-17,42.8,38.0,34.0,41.2,36.0,32.5,96,92,87,30.18,29.77,2,1,11,0.06
2013-3-18,48.6,39.6,32.7,48.3,38.8,31.7,100,97,94,30.20,29.78,5,2,16,0.60
2013-3-19,55.7,44.9,39.1,43.4,40.9,25.1,100,88,45,29.82,29.67,4,1,15,0.00
2013-3-20,53.9,44.6,29.4,35.2,24.2,15.5,88,48,24,29.95,29.71,5,2,15,0.00
2013-3-21,42.8,36.9,31.8,35.2,25.2,11.6,90,64,42,29.80,29.60,4,3,17,0.00
2013-3-22,47.4,36.0,27.5,23.9,19.2,11.8,80,52,35,29.90,29.80,5,2,16,0.00
2013-3-23,53.1,37.7,23.9,30.6,26.5,21.1,91,68,36,29.95,29.84,3,1,15,0.00
2013-3-24,42.1,35.5,28.7,32.8,28.3,23.8,95,76,58,29.91,29.53,5,2,14,0.04
2013-3-25,40.2,37.3,34.3,39.9,36.1,32.8,99,95,90,29.61,29.35,4,2,14,0.46
2013-3-26,50.7,41.4,34.3,38.5,35.2,30.3,98,80,56,29.89,29.61,4,1,15,0.00
2013-3-27,52.8,44.1,37.5,36.5,32.5,29.9,81,65,42,30.02,29.89,5,2,14,0.00
2013-3-28,51.9,43.7,37.0,35.2,32.1,29.5,79,64,49,30.12,30.00,5,2,19,0.00
2013-3-29,56.0,44.7,34.9,36.7,33.0,29.2,89,66,40,30.16,30.07,5,1,19,0.00
2013-3-30,62.0,46.8,34.0,40.2,33.6,26.9,92,66,27,30.14,30.05,3,1,10,0.00
2013-3-31,58.4,50.7,40.9,53.6,46.3,36.6,100,85,75,30.09,29.69,7,2,15,0.27
2013-4-1,69.4,55.4,45.8,53.3,45.4,30.4,100,73,35,29.86,29.63,4,1,14,0.00
2013-4-2,54.1,43.2,28.4,31.0,25.9,19.3,85,53,27,30.08,29.86,4,1,14,0.00
2013-4-3,53.9,40.5,26.0,28.7,23.0,16.8,86,54,27,30.28,30.08,5,1,14,0.00
2013-4-4,46.7,39.1,28.5,37.7,25.6,15.8,92,59,42,30.33,29.99,4,1,12,0.01
2013-4-5,59.8,46.1,38.9,46.9,40.1,33.9,99,83,38,29.99,29.73,3,2,12,0.00
2013-4-6,51.1,43.1,34.6,37.3,30.8,26.5,94,64,41,30.26,29.91,5,2,13,0.00
2013-4-7,61.8,49.8,33.8,48.1,42.0,31.7,96,76,57,30.25,29.98,9,3,13,0.00
2013-4-8,77.2,64.5,55.0,59.7,53.6,47.9,84,69,45,30.03,29.95,5,3,11,0.00
2013-4-9,83.2,70.4,62.4,60.2,56.1,52.1,80,63,36,30.03,29.93,5,2,8,0.00
2013-4-10,89.5,75.1,65.8,63.6,58.7,53.2,74,59,31,29.94,29.79,5,2,11,0.00
2013-4-11,82.0,71.5,62.1,64.0,60.1,57.5,87,68,48,29.84,29.74,7,3,12,0.00
2013-4-12,74.2,66.7,62.9,66.9,63.3,59.9,98,89,76,29.75,29.52,9,4,15,0.19
2013-4-13,66.3,56.0,49.5,64.8,47.1,42.0,97,73,54,29.88,29.54,5,3,11,0.00
2013-4-14,70.8,58.7,46.2,54.0,45.5,35.7,99,65,30,30.07,29.88,5,1,6,0.00
2013-4-15,61.0,55.8,53.5,51.5,48.8,42.6,89,78,63,30.21,30.06,5,2,11,0.00
2013-4-16,70.1,60.4,48.5,58.2,53.5,46.9,98,79,63,30.25,30.13,7,3,10,0.00
2013-4-17,79.2,64.8,56.3,64.2,58.0,54.6,95,80,56,30.16,30.08,5,2,11,0.00
2013-4-18,73.7,64.6,57.2,63.4,59.2,55.5,97,84,64,30.18,30.02,7,3,12,0.00
2013-4-19,76.0,67.9,60.9,67.0,63.4,58.5,95,86,70,30.02,29.67,10,5,14,0.13
2013-4-20,66.3,54.1,44.1,65.1,44.4,32.7,98,72,44,30.22,29.70,6,2,14,0.52
2013-4-21,55.0,46.0,37.0,41.9,33.0,26.8,92,62,34,30.50,30.22,6,2,10,0.00
2013-4-22,55.1,45.7,33.7,45.1,40.4,31.4,96,82,66,30.49,30.24,6,2,12,0.00
2013-4-23,56.6,50.0,42.1,47.5,45.5,40.5,95,85,70,30.24,30.05,4,2,9,0.00
2013-4-24,66.3,55.6,41.1,57.0,51.2,39.9,99,86,70,30.07,29.85,8,4,13,0.00
2013-4-25,65.0,55.6,41.3,58.1,44.8,37.9,94,69,44,30.23,29.89,4,2,12,0.00
2013-4-26,66.9,52.0,38.0,54.8,40.8,36.1,100,71,34,30.35,30.21,4,1,6,0.00
2013-4-27,67.8,54.0,39.8,52.2,42.2,35.9,100,70,34,30.34,30.24,4,1,6,0.00
2013-4-28,65.5,54.2,39.1,51.7,41.9,34.1,100,67,34,30.24,30.09,5,2,10,0.01
2013-4-29,57.3,55.7,53.9,57.0,55.2,52.0,100,98,85,30.09,29.96,6,3,16,1.50
2013-4-30,59.8,56.9,54.5,58.1,56.3,54.3,100,98,92,30.13,29.96,5,2,9,0.07
2013-5-1,64.0,57.5,52.8,53.6,50.5,44.5,92,78,52,30.31,30.12,5,3,9,0.00
2013-5-2,64.8,55.3,46.2,53.2,49.1,44.0,97,81,64,30.32,30.24,4,2,7,0.00
2013-5-3,58.6,52.3,43.2,50.2,45.3,40.8,100,79,55,30.28,30.20,7,3,11,0.00
2013-5-4,62.1,52.0,42.3,51.8,46.2,40.3,98,82,54,30.22,30.11,5,2,10,0.00
2013-5-5,61.3,53.6,43.8,51.5,47.6,41.6,94,81,67,30.11,30.05,6,2,12,0.00
2013-5-6,66.8,57.1,52.8,60.6,51.3,-99.9,99,89,78,30.06,29.95,5,-32,11,0.00
2013-5-7,68.3,61.6,55.3,63.4,59.0,53.3,99,91,78,29.95,29.83,6,3,9,0.37
2013-5-8,71.5,60.0,49.1,59.3,55.1,48.3,100,85,57,29.95,29.87,5,2,7,0.01
2013-5-9,76.1,64.1,56.6,61.6,58.0,55.6,100,83,53,29.95,29.84,3,1,8,0.00
2013-5-10,85.3,70.2,56.2,64.1,59.4,53.6,100,72,34,29.96,29.87,6,2,10,0.00
2013-5-11,70.8,68.8,66.9,62.4,61.7,60.8,83,78,72,29.87,29.81,4,2,6,0.00
2013-5-14,64.5,59.7,55.9,48.5,41.1,34.1,74,52,34,30.06,30.03,3,1,4,0.00
2013-5-15,82.4,78.6,74.2,64.9,61.3,56.3,66,56,48,29.84,29.70,5,4,10,0.00
2013-5-16,88.8,78.7,69.1,63.7,60.5,55.0,75,55,32,29.84,29.70,4,1,12,0.00
2013-5-17,79.0,69.0,60.1,63.1,54.2,45.6,93,63,33,30.09,29.84,3,1,6,0.00
2013-5-18,63.1,53.1,60.9,62.2,35.4,-99.9,97,75,73,30.16,30.08,5,-144,10,0.00
2013-5-19,78.1,67.8,62.3,69.5,64.6,60.9,99,90,71,30.12,30.05,6,2,6,0.00
2013-5-20,81.6,71.1,66.0,70.6,67.0,65.2,99,88,66,30.08,29.96,5,2,9,0.00
2013-5-21,80.3,73.2,67.4,70.4,67.6,65.8,96,83,63,29.97,29.86,4,2,9,0.00
2013-5-22,83.8,74.9,69.9,70.4,67.8,66.1,92,79,60,29.93,29.85,7,3,15,0.00
2013-5-23,73.5,70.1,66.4,69.7,67.9,65.8,98,93,86,29.91,29.71,6,3,11,0.00
2013-5-24,71.6,61.8,54.5,68.8,56.8,40.9,100,85,60,30.01,29.67,4,1,9,0.01
2013-5-25,65.2,57.5,48.8,45.7,41.2,38.5,69,55,38,30.07,30.00,4,2,9,0.00
2013-5-26,70.6,60.6,49.5,47.9,43.2,36.0,91,55,31,30.15,30.06,4,1,11,0.00
2013-5-27,77.6,63.5,47.7,61.4,50.4,45.0,100,67,32,30.19,30.12,5,1,7,0.00
2013-5-28,78.8,69.8,62.4,63.4,60.1,55.8,87,72,56,30.16,30.07,7,3,15,0.00
2013-5-29,86.5,75.6,66.8,67.8,65.1,62.5,89,72,50,30.10,30.06,5,3,10,0.00
2013-5-30,87.4,76.3,68.3,69.8,66.0,62.7,91,72,49,30.16,30.10,5,2,9,0.00
2013-5-31,87.6,76.9,68.9,72.0,67.8,63.3,94,75,50,30.14,30.02,6,2,11,0.00
2013-6-1,87.2,78.2,71.6,73.4,68.8,66.8,88,74,53,30.04,29.93,6,3,11,0.00
2013-6-2,86.7,78.0,70.4,68.7,66.0,61.6,81,68,47,29.94,29.82,6,3,11,0.04
2013-6-3,75.1,71.4,67.1,73.3,68.8,66.3,100,92,81,29.85,29.75,3,1,11,0.69
2013-6-4,74.4,67.4,55.6,69.1,58.8,50.5,100,77,44,30.06,29.84,4,1,11,0.00
2013-6-5,76.8,65.2,52.2,63.7,54.5,48.2,100,73,38,30.10,30.04,3,1,11,0.00
2013-6-6,76.1,66.8,57.2,65.5,61.0,-99.9,100,84,63,30.04,29.83,6,2,11,0.01
2013-6-7,77.2,71.5,68.6,74.8,69.9,65.5,100,95,84,29.83,29.39,9,3,12,1.38
2013-6-8,79.2,70.5,63.2,69.5,67.0,62.0,99,89,67,30.02,29.59,3,0,5,0.07
2013-6-9,79.4,70.9,61.2,70.7,65.6,61.0,100,85,64,30.12,30.02,4,2,12,0.01
2013-6-10,80.1,73.8,71.3,73.8,71.7,69.7,100,94,78,30.06,29.82,5,2,10,0.16
2013-6-11,83.0,75.8,71.3,72.7,69.2,67.0,97,81,60,29.82,29.72,5,2,10,0.31
2013-6-12,88.6,78.4,67.6,72.3,68.7,65.8,96,74,50,29.82,29.74,3,1,8,0.00
2013-6-13,92.5,77.6,69.9,76.4,70.4,63.4,96,80,48,29.76,29.43,5,2,7,0.66
2013-6-14,73.5,67.2,59.3,63.6,57.9,54.8,92,73,53,29.88,29.50,3,1,7,0.03
2013-6-15,83.2,71.9,59.3,68.6,61.5,57.0,100,73,43,29.99,29.88,3,1,5,0.00
2013-6-16,85.7,76.4,64.5,69.7,66.2,63.2,97,72,55,29.98,29.86,6,2,12,0.00
2013-6-17,82.2,74.6,69.8,71.7,69.2,65.4,95,84,64,29.93,29.86,3,1,7,0.12
2013-6-18,76.0,71.5,63.7,73.3,69.3,62.8,98,93,87,29.89,29.69,4,1,5,0.01
2013-6-19,72.0,67.1,61.2,65.4,62.4,57.5,99,85,66,30.09,29.76,3,1,9,0.15
2013-6-20,75.4,65.8,55.1,64.3,55.3,47.6,100,73,38,30.21,30.09,4,1,10,0.00
2013-6-21,76.3,67.4,57.6,66.4,62.2,56.1,100,84,67,30.23,30.18,4,1,7,0.00
2013-6-22,80.3,71.2,61.0,68.4,63.4,59.8,100,78,57,30.19,30.11,4,1,8,0.00
2013-6-23,82.6,75.9,66.9,74.4,71.2,63.5,97,86,72,30.14,30.05,5,2,10,0.00
2013-6-24,88.4,80.4,73.3,75.8,72.8,71.2,96,79,58,30.09,29.98,4,2,8,0.00
2013-6-25,90.1,81.5,74.2,77.0,73.4,71.5,94,78,56,30.00,29.85,3,1,7,0.00
2013-6-26,90.5,81.5,74.0,75.9,73.2,69.9,92,77,57,29.88,29.76,4,2,9,0.02
2013-6-27,88.4,78.5,70.9,77.1,71.7,68.5,96,81,58,29.79,29.60,7,2,15,0.27
2013-6-28,89.3,80.4,73.5,75.2,72.8,69.2,97,79,56,29.62,29.46,4,2,7,0.00
2013-6-29,84.3,76.4,71.6,74.1,70.8,66.9,96,83,63,29.67,29.47,5,2,11,0.06
2013-6-30,83.0,77.4,74.2,75.4,73.0,71.2,95,87,76,29.83,29.67,6,3,9,0.02
2013-7-1,81.1,75.7,73.0,76.1,73.0,71.2,97,91,80,29.99,29.83,6,3,15,0.75
2013-7-2,84.7,75.4,70.1,75.8,72.3,69.5,99,91,71,30.16,29.99,7,2,15,0.22
2013-7-3,85.1,77.6,69.9,77.1,74.1,69.6,100,90,71,30.20,30.13,5,2,11,0.02
2013-7-4,86.5,79.0,73.7,77.1,73.4,71.2,99,84,65,30.23,30.16,4,2,10,0.01
2013-7-5,89.0,79.8,71.8,76.5,72.7,70.1,99,80,56,30.21,30.11,5,2,7,0.00
2013-7-6,90.1,81.0,74.6,77.4,73.2,67.3,94,78,51,30.15,30.05,3,1,7,0.00
2013-7-7,89.3,81.6,74.0,75.2,72.6,70.9,94,76,56,30.08,29.96,4,1,7,0.00
2013-7-8,85.1,79.1,74.6,73.9,72.7,70.7,93,81,65,30.07,29.99,3,1,6,0.00
2013-7-9,86.5,79.5,73.5,78.4,74.3,71.6,98,85,69,30.06,29.96,3,1,6,0.01
2013-7-10,88.8,81.0,76.3,77.5,74.2,69.8,90,80,64,30.01,29.84,5,2,13,0.00
2013-7-11,80.3,76.4,73.3,75.8,72.8,70.9,99,89,82,29.88,29.82,3,1,6,0.12
2013-7-12,79.4,73.8,71.8,74.0,72.4,70.5,100,96,80,29.95,29.81,2,0,5,0.21
2013-7-13,84.9,76.9,69.1,76.6,73.5,69.0,100,90,72,30.21,29.95,6,2,10,0.04
2013-7-14,87.2,79.1,73.3,78.5,74.2,70.2,100,86,62,30.27,30.21,3,1,7,0.00
2013-7-15,91.8,79.6,68.9,78.1,73.1,68.9,100,83,53,30.25,30.13,2,0,6,0.01
2013-7-16,94.0,82.1,73.5,81.3,75.2,71.0,98,81,56,30.13,30.07,2,0,6,0.00
2013-7-17,94.9,81.8,71.5,81.1,73.5,70.3,99,78,49,30.12,30.03,2,0,4,0.00
2013-7-18,97.1,83.3,72.1,79.2,73.2,68.0,100,75,41,30.06,29.96,3,1,7,0.00
2013-7-19,94.5,85.2,74.4,79.6,75.0,72.3,98,73,52,29.98,29.84,5,2,10,0.00
2013-7-20,91.2,84.8,79.0,77.5,74.7,72.3,84,72,62,29.87,29.78,5,3,11,0.00
2013-7-21,89.9,81.7,74.6,76.7,74.4,73.1,97,79,60,29.88,29.81,4,2,8,0.09
2013-7-22,88.0,78.3,72.0,77.8,74.7,71.7,100,89,65,29.86,29.73,3,1,5,0.01
2013-7-23,90.5,80.3,74.9,76.5,74.5,71.8,97,84,55,29.73,29.58,4,1,9,0.05
2013-7-24,91.8,80.2,72.1,79.6,73.1,68.8,100,81,54,29.78,29.60,3,0,6,0.01
2013-7-25,77.4,71.1,66.1,70.1,67.1,64.0,96,87,76,29.93,29.75,3,1,4,0.23
2013-7-26,82.4,72.4,65.6,68.9,65.5,63.1,96,80,58,30.01,29.92,3,1,4,0.00
2013-7-27,85.1,73.2,62.9,71.4,65.4,60.5,100,79,50,30.01,29.89,3,1,7,0.01
2013-7-28,85.7,76.7,68.8,75.4,71.2,66.4,96,84,64,29.95,29.84,4,1,6,0.51
2013-7-29,84.7,74.4,63.9,73.7,67.5,59.0,100,81,46,30.07,29.89,2,0,3,0.05
2013-7-30,84.3,71.7,59.5,69.4,62.1,59.2,100,75,44,30.14,30.07,3,1,4,0.00
2013-7-31,81.1,72.5,62.1,71.0,64.3,61.4,100,77,53,30.10,29.98,4,1,4,0.00
2013-8-1,79.2,73.7,71.6,73.5,69.6,66.3,98,87,77,29.98,29.75,7,2,9,0.06
2013-8-2,89.5,78.2,68.9,73.8,70.0,62.2,99,79,42,29.91,29.78,3,1,6,0.01
2013-8-3,89.9,75.6,69.9,74.9,71.7,67.9,100,89,54,29.91,29.83,3,0,4,0.95
2013-8-4,82.8,73.6,63.1,73.0,64.7,57.2,100,77,44,29.94,29.79,2,0,4,0.00
2013-8-5,79.4,69.4,59.5,64.3,60.7,57.0,99,76,47,30.03,29.93,3,1,4,0.00
2013-8-6,68.9,67.4,65.6,68.0,66.0,63.7,99,95,91,30.04,29.95,3,1,5,0.62
2013-8-7,82.6,74.8,68.4,74.8,70.0,67.7,100,86,67,30.04,30.00,5,2,6,0.09
2013-8-8,85.5,78.2,73.0,74.5,72.0,69.1,94,82,65,30.02,29.96,5,2,10,0.00
2013-8-9,90.3,82.7,75.8,77.3,75.1,73.9,96,79,62,29.96,29.82,5,2,8,0.01
2013-8-10,89.0,79.2,71.1,77.3,72.0,67.8,96,80,53,30.01,29.89,2,0,4,0.00
2013-8-11,83.0,75.5,67.6,73.6,69.6,65.0,98,83,55,30.05,29.96,3,1,5,0.00
2013-8-12,86.7,79.6,72.3,78.3,74.6,71.9,100,86,70,29.96,29.87,3,1,5,0.00
2013-8-13,86.7,81.4,74.2,78.9,74.0,71.2,99,79,64,29.75,29.69,4,1,6,0.01
2013-8-14,77.2,70.8,59.2,74.0,60.0,50.2,97,71,47,30.01,29.67,2,1,3,0.06
2013-8-15,77.7,64.8,55.3,62.3,57.4,52.8,97,79,44,30.09,29.99,2,0,4,0.00
2013-8-16,77.7,65.9,54.7,62.3,57.7,54.3,100,77,47,30.10,30.04,3,1,6,0.00
2013-8-17,77.7,70.8,63.9,67.8,64.3,60.3,90,80,61,30.16,30.08,4,1,9,0.02
2013-8-18,72.3,69.0,64.5,71.3,67.4,64.2,99,95,84,30.13,30.05,3,1,6,0.41
2013-8-19,74.6,68.3,62.6,69.4,65.9,62.6,100,93,76,30.12,30.02,2,0,3,0.01
2013-8-20,83.4,73.9,67.8,72.1,69.4,66.9,100,87,64,30.12,30.03,2,0,5,0.00
2013-8-21,85.3,75.4,66.8,76.2,70.6,66.5,100,86,64,30.15,30.04,3,1,6,0.01
2013-8-22,87.6,78.1,69.9,77.8,73.0,69.6,100,86,60,30.06,29.89,3,0,5,0.37
2013-8-23,84.1,72.9,65.8,73.3,69.6,64.6,100,90,63,30.01,29.84,2,0,4,0.10
2013-8-24,80.7,70.2,60.9,68.3,64.0,60.9,100,83,58,30.25,30.01,4,1,6,0.01
2013-8-25,78.5,66.7,56.3,65.1,57.8,53.8,100,77,45,30.33,30.23,3,1,9,0.00
2013-8-26,82.8,68.3,52.8,67.6,59.1,52.8,100,76,44,30.25,29.99,3,1,7,0.00
2013-8-27,89.5,76.8,66.9,72.5,67.7,61.4,94,75,55,29.99,29.84,3,1,4,0.00
2013-8-28,82.6,75.9,70.9,76.4,72.3,70.1,100,89,72,29.85,29.77,3,0,4,0.14
2013-8-29,82.6,74.3,66.1,75.1,69.5,65.0,100,86,64,29.95,29.73,4,1,7,0.00
2013-8-30,83.8,72.2,63.5,71.6,67.2,63.2,100,86,64,29.99,29.89,3,1,5,0.01
2013-8-31,87.0,77.3,68.8,74.1,70.6,67.5,99,81,57,29.89,29.80,5,2,10,0.01
2013-9-1,89.3,80.2,73.3,76.9,73.7,70.5,96,81,66,29.82,29.72,5,2,6,0.00
2013-9-2,85.7,76.7,71.3,74.1,72.0,69.8,97,86,67,29.76,29.69,3,0,6,0.00
2013-9-3,88.4,77.6,66.8,76.5,71.6,64.5,99,83,55,29.84,29.69,3,0,5,0.00
2013-9-4,82.8,71.4,62.0,64.5,61.3,57.8,96,73,46,30.01,29.84,2,0,3,0.00
2013-9-5,88.0,73.9,61.8,71.5,63.5,56.0,100,74,35,30.00,29.93,2,0,8,0.00
2013-9-6,78.3,69.0,56.3,63.7,56.4,52.8,92,66,44,30.13,30.00,3,1,4,0.00
2013-9-7,82.4,67.2,53.3,66.0,56.7,49.4,100,73,32,30.07,29.89,2,0,4,0.00
2013-9-8,88.2,73.3,61.2,68.3,62.8,58.3,96,73,41,29.93,29.81,2,0,4,0.00
2013-9-9,80.1,72.0,64.0,69.8,66.4,59.7,96,83,71,30.10,29.93,4,1,6,0.00
2013-9-10,89.9,77.3,67.4,72.6,69.4,66.8,99,79,52,30.15,30.07,4,1,8,0.00
2013-9-11,92.7,79.5,69.6,72.8,70.0,67.5,95,75,47,30.12,29.99,4,1,5,0.00
2013-9-12,90.1,79.1,70.3,72.9,70.2,67.6,97,76,48,29.99,29.69,5,2,12,0.49
2013-9-13,81.2,72.4,61.2,73.3,65.5,57.0,100,81,50,29.79,29.61,2,0,5,0.04
2013-9-14,73.5,63.4,51.4,57.6,53.6,49.4,94,72,47,30.08,29.79,3,0,6,0.00
2013-9-15,76.8,62.5,48.2,59.5,53.8,47.7,100,76,48,30.17,30.06,3,1,5,0.00
2013-9-16,80.1,67.8,56.9,68.9,62.6,55.8,96,84,63,30.11,29.99,3,0,4,0.00
2013-9-17,69.3,59.8,50.4,56.9,52.1,47.0,99,77,55,30.29,30.11,3,1,7,0.01
2013-9-18,73.0,58.4,47.9,55.3,49.9,46.0,96,76,47,30.25,30.13,3,1,6,0.00
2013-9-19,75.6,60.0,46.7,61.0,51.8,46.4,100,78,47,30.13,30.03,3,1,9,0.01
2013-9-20,77.0,61.5,49.2,64.5,54.2,48.9,100,80,50,30.03,29.93,3,1,7,0.00
2013-9-21,79.8,66.8,52.2,69.9,62.1,51.9,100,86,56,29.93,29.66,5,2,7,0.32
2013-9-22,78.3,67.2,55.6,67.1,61.3,52.1,100,83,51,29.83,29.64,2,0,4,0.19
2013-9-23,68.9,57.1,46.7,52.1,48.3,44.4,95,74,47,30.00,29.83,3,1,10,0.00
2013-9-24,73.0,56.5,44.6,56.8,49.0,44.3,100,80,41,30.01,29.88,2,0,4,0.01
2013-9-25,77.7,61.2,48.5,63.3,53.7,48.2,100,80,39,29.89,29.80,2,0,4,0.00
2013-9-26,75.8,64.4,56.9,62.4,57.9,55.8,99,81,54,29.98,29.81,3,1,5,0.00
2013-9-27,74.2,62.3,54.4,60.3,54.6,49.2,100,79,43,30.13,29.98,4,1,6,0.00
2013-9-28,73.0,62.0,54.1,58.9,55.4,52.1,96,80,58,30.18,30.10,3,1,7,0.00
2013-9-29,74.6,62.1,52.5,64.0,55.7,50.3,100,82,56,30.10,29.96,4,1,10,0.00
2013-9-30,78.3,60.5,47.7,59.7,53.9,47.4,100,82,49,29.99,29.92,2,0,5,0.01
2013-10-1,82.2,63.8,50.7,63.6,56.5,50.4,100,81,46,30.01,29.92,3,0,4,0.00
2013-10-2,85.9,69.6,59.6,68.7,61.7,58.7,100,80,44,30.01,29.95,3,0,3,0.01
2013-10-3,87.4,71.3,59.0,70.0,63.2,58.5,100,79,43,30.04,30.00,2,0,5,0.00
2013-10-4,89.0,73.2,63.1,68.9,64.9,61.9,99,78,43,30.02,29.96,2,0,4,0.00
2013-10-5,91.6,75.0,63.7,72.5,65.7,63.3,100,77,40,30.02,29.96,2,0,4,0.00
2013-10-6,87.6,74.3,64.5,70.0,66.9,63.9,99,80,47,30.00,29.93,5,2,9,0.00
2013-10-7,82.4,72.3,61.2,71.5,68.3,59.5,99,88,67,29.94,29.79,8,2,12,0.76
2013-10-8,63.2,60.5,58.0,59.5,51.9,47.6,93,74,61,30.15,29.94,2,1,5,0.00
2013-10-9,63.9,61.0,57.8,61.3,57.7,51.4,99,89,73,30.14,29.96,5,3,11,1.14
2013-10-10,69.3,66.2,61.6,69.3,66.0,61.3,100,99,97,29.97,29.77,5,2,14,0.49
2013-10-11,73.2,69.0,66.8,73.2,68.0,65.0,100,97,84,29.84,29.73,3,0,5,0.76
2013-10-12,71.6,67.4,64.8,69.6,66.4,64.0,100,97,86,30.00,29.82,3,1,7,0.06
2013-10-13,68.1,65.9,63.1,68.1,64.1,59.8,100,94,86,30.18,29.99,4,2,11,0.34
2013-10-14,70.9,63.4,55.6,61.2,58.4,54.2,96,85,64,30.19,30.13,4,1,8,0.00
2013-10-15,68.4,61.2,54.1,62.2,58.6,53.5,100,92,77,30.14,29.99,4,1,7,0.01
2013-10-16,74.7,65.6,60.9,65.4,62.0,60.3,98,89,68,29.99,29.88,2,0,2,0.00
2013-10-17,77.2,67.4,61.5,66.9,63.9,61.4,100,90,65,29.88,29.74,3,1,5,0.01
2013-10-18,69.1,61.5,48.5,65.4,51.4,45.5,96,71,44,29.96,29.73,3,1,4,0.00
2013-10-19,65.5,59.5,48.3,64.1,57.0,47.2,99,92,76,29.95,29.74,2,0,7,0.00
2013-10-20,64.3,55.2,41.6,62.3,45.7,39.9,99,73,44,30.05,29.77,2,0,4,0.00
2013-10-21,66.9,51.9,39.2,56.0,45.0,38.9,100,81,47,30.09,29.93,3,1,4,0.00
2013-10-22,70.9,57.0,49.5,56.9,53.5,48.7,100,89,56,29.93,29.73,1,0,4,0.00
2013-10-23,56.0,52.7,48.6,54.6,47.2,41.1,95,82,67,29.80,29.56,2,0,4,0.05
2013-10-24,56.7,49.3,38.9,42.1,37.3,33.2,89,64,42,30.06,29.80,3,1,5,0.00
2013-10-25,57.3,45.1,35.5,41.4,37.5,33.7,96,77,46,30.25,30.05,2,0,6,0.00
2013-10-26,60.5,45.7,31.6,45.7,35.9,31.1,100,73,42,30.24,29.92,5,1,10,0.00
2013-10-27,63.7,51.9,39.6,46.7,40.6,35.9,95,68,40,30.07,29.90,3,0,9,0.00
2013-10-28,68.8,51.7,38.5,56.4,46.7,37.5,100,85,54,30.18,30.07,3,0,12,0.00
2013-10-29,70.1,54.2,43.8,55.2,49.3,43.5,100,86,53,30.27,30.17,2,0,6,0.00
2013-10-30,67.8,58.0,48.0,59.3,53.1,47.2,100,85,59,30.26,30.10,2,0,10,0.01
2013-10-31,73.7,65.0,56.0,63.6,59.1,54.2,96,82,60,30.13,29.85,5,2,14,0.00
2013-11-1,73.0,68.3,66.6,66.2,64.0,61.6,96,86,74,29.85,29.59,6,3,17,0.12
2013-11-2,72.0,63.3,54.7,66.5,58.3,45.6,100,85,43,29.79,29.55,3,0,10,0.01
2013-11-3,58.6,50.8,37.9,47.5,40.6,31.7,81,68,54,30.30,29.79,3,1,7,0.00
2013-11-4,53.3,43.4,34.4,38.4,33.7,27.3,87,69,49,30.50,30.30,3,1,5,0.00
2013-11-5,62.1,50.9,39.9,49.4,44.3,36.6,95,79,57,30.49,30.38,4,1,7,0.00
2013-11-6,67.9,55.9,42.5,60.7,51.1,41.5,100,86,51,30.38,30.04,4,1,6,0.00
2013-11-7,64.0,59.3,48.2,63.5,56.3,39.8,100,90,66,30.04,29.76,2,1,7,0.27
2013-11-8,56.0,46.1,33.4,40.0,32.1,27.6,90,60,38,30.24,29.95,3,1,7,0.00
2013-11-9,57.0,42.2,29.8,39.1,33.6,28.5,98,75,35,30.29,30.02,3,0,7,0.01
2013-11-10,67.4,53.6,38.9,42.4,38.0,30.3,91,57,34,30.14,29.86,4,1,10,0.00
2013-11-11,57.6,47.9,41.1,42.1,36.3,30.1,90,65,42,30.24,30.02,3,1,5,0.00
2013-11-12,56.5,43.3,36.8,43.4,31.7,16.9,90,65,41,30.27,29.90,3,1,9,0.00
2013-11-13,44.3,35.9,27.3,25.1,22.1,16.0,86,58,41,30.37,30.27,3,1,6,0.00
2013-11-14,56.3,39.8,25.6,32.6,26.4,21.2,92,64,28,30.34,30.22,4,1,6,0.00
2013-11-15,59.0,46.8,31.5,46.6,35.1,27.1,93,67,30,30.24,30.15,5,1,6,0.00
2013-11-16,61.8,55.0,48.5,54.7,50.3,46.4,99,84,73,30.24,30.15,3,0,5,0.00
2013-11-17,68.1,57.3,48.2,61.6,55.8,47.9,100,95,76,30.15,29.78,5,1,10,0.01
2013-11-18,72.1,59.9,46.0,66.4,51.3,36.9,100,77,31,29.80,29.66,5,1,11,0.02
2013-11-19,51.6,46.6,39.3,38.6,31.8,28.4,72,57,44,30.26,29.80,3,2,6,0.00
2013-11-20,51.0,40.9,34.9,38.0,32.0,25.8,89,71,59,30.43,30.24,4,1,7,0.00
2013-11-21,57.8,47.5,34.6,50.9,43.5,32.3,97,86,71,30.43,30.32,4,1,11,0.00
2013-11-22,64.3,56.1,41.5,59.5,52.8,40.8,100,89,75,30.32,29.92,4,1,10,0.04
2013-11-23,60.9,47.9,34.3,58.7,38.5,22.6,94,71,46,30.02,29.91,4,1,5,0.00
2013-11-24,39.6,31.1,27.5,26.8,11.3,3.9,62,44,33,30.43,30.01,6,3,11,0.00
2013-11-25,39.2,30.2,23.2,23.2,17.0,12.2,73,59,40,30.52,30.31,2,1,4,0.00
2013-11-26,60.9,46.2,35.6,60.9,39.7,21.8,100,79,43,30.32,29.54,7,2,11,0.03
2013-11-27,63.1,45.7,34.1,63.1,43.1,21.1,100,91,58,29.93,29.36,9,4,12,0.24
2013-11-28,39.9,31.1,23.5,22.0,19.5,14.9,91,63,43,30.43,29.93,4,2,8,0.00
2013-11-29,45.8,32.5,22.5,34.5,23.8,21.0,97,73,43,30.61,30.40,3,1,4,0.00
2013-11-30,48.2,37.0,26.9,36.5,29.7,20.6,94,75,61,30.60,30.28,5,1,6,0.00
2013-12-1,51.0,36.9,28.2,39.7,32.6,27.0,99,86,45,30.28,29.95,2,0,2,0.00
2013-12-2,54.2,39.2,27.8,45.9,35.1,26.8,100,87,57,29.95,29.76,3,0,5,0.01
2013-12-3,59.3,43.2,31.3,44.9,36.8,30.5,100,82,42,29.93,29.78,2,0,3,0.01
2013-12-4,61.2,51.6,40.2,54.4,48.9,38.9,99,91,76,30.03,29.93,3,0,5,0.03
2013-12-5,66.8,56.3,47.4,62.5,55.0,47.3,100,95,81,30.06,29.93,4,1,6,0.02
2013-12-6,73.2,60.4,50.1,63.6,56.5,48.7,96,87,70,29.98,29.89,5,1,12,0.00
2013-12-7,49.1,40.3,34.0,47.7,36.4,27.8,97,86,71,30.43,29.98,4,1,7,0.31
2013-12-8,40.2,34.7,32.5,40.2,31.7,26.6,100,89,74,30.45,30.13,3,1,5,0.71
2013-12-9,43.9,40.5,38.0,43.9,40.5,38.0,100,100,100,30.13,29.97,2,1,4,0.48
2013-12-10,41.1,36.7,28.7,41.1,36.0,27.7,100,97,91,30.17,29.84,2,1,6,0.25
2013-12-11,46.7,32.3,24.2,35.9,27.2,20.2,100,84,36,30.34,30.17,3,0,5,0.01
2013-12-12,36.3,28.6,20.2,29.3,20.7,15.1,98,74,43,30.32,30.15,4,1,10,0.00
2013-12-13,46.7,31.4,20.3,26.6,21.6,17.8,91,70,35,30.26,30.17,4,1,7,0.00
2013-12-14,57.5,43.7,30.0,57.5,40.1,26.4,100,88,63,30.26,29.58,9,2,21,1.10
2013-12-15,57.2,41.5,28.8,57.2,39.5,27.8,100,93,71,29.90,29.55,3,1,6,0.04
2013-12-16,46.1,35.3,27.3,36.0,30.2,26.6,100,83,54,30.12,29.89,2,0,4,0.01
2013-12-17,57.5,45.3,37.9,41.7,38.9,34.5,94,80,48,30.08,29.81,4,1,9,0.25
2013-12-18,43.1,35.3,26.4,38.8,29.9,24.5,97,82,53,30.17,29.83,4,1,5,0.05
2013-12-19,57.3,43.8,26.9,31.4,28.3,25.4,96,60,32,30.17,30.07,6,2,11,0.00
2013-12-20,63.1,55.3,48.5,54.9,43.9,29.4,85,66,43,30.12,30.00,6,3,7,0.00
2013-12-21,67.8,60.5,55.1,59.6,53.6,49.0,92,78,65,30.04,29.95,5,3,9,0.00
2013-12-22,75.8,64.9,59.9,66.3,61.4,58.2,98,89,69,30.03,29.91,7,3,14,0.07
2013-12-23,69.3,60.0,42.8,66.1,59.0,41.7,100,96,86,30.08,29.89,7,2,7,1.32
2013-12-24,43.5,38.5,28.7,41.7,28.4,12.5,96,68,47,30.35,30.04,4,2,7,0.07
2013-12-25,36.8,27.8,21.8,20.3,16.2,11.7,90,63,44,30.47,30.33,3,1,6,0.00
2013-12-26,46.7,30.9,21.9,32.8,24.5,19.4,97,80,40,30.33,30.14,3,0,5,0.00
2013-12-27,50.8,34.0,23.0,32.1,24.6,17.6,98,73,27,30.38,30.27,2,0,3,0.00
2013-12-28,58.0,40.5,27.9,35.6,29.9,23.6,99,71,27,30.30,30.09,4,1,7,0.01
2013-12-29,59.8,49.2,41.6,59.8,46.8,32.1,100,92,56,30.09,29.45,11,2,16,0.90
2013-12-30,52.8,42.5,36.3,46.2,37.3,28.6,100,82,67,30.08,29.76,2,0,4,0.02
2013-12-31,46.8,36.3,27.8,32.2,26.4,20.3,90,68,55,30.27,30.07,5,1,9,0.00
2014-1-1,49.6,34.4,24.4,38.6,28.8,21.4,97,82,51,30.35,30.08,4,1,4,0.00
2014-1-2,44.8,39.7,32.5,41.3,37.5,32.0,100,92,76,30.08,29.43,1,0,2,0.34